sensor_id;sensor_type;location;lat;lon;timestamp;temperature;humidity
12959;DHT22;6544;51.666;6.634;2022-10-16T00:01:16;14.40;54.60
12959;DHT22;6544;51.666;6.634;2022-10-16T00:03:43;14.40;48.20
12959;DHT22;6544;51.666;6.634;2022-10-16T00:06:11;14.40;50.30
12959;DHT22;6544;51.666;6.634;2022-10-16T00:08:38;14.40;46.10
12959;DHT22;6544;51.666;6.634;2022-10-16T00:11:07;14.40;45.80
12959;DHT22;6544;51.666;6.634;2022-10-16T00:13:36;14.40;41.60
12959;DHT22;6544;51.666;6.634;2022-10-16T00:16:04;14.40;47.60
12959;DHT22;6544;51.666;6.634;2022-10-16T00:18:31;14.40;44.90
12959;DHT22;6544;51.666;6.634;2022-10-16T00:21:02;14.40;32.20
12959;DHT22;6544;51.666;6.634;2022-10-16T00:23:30;14.40;36.20
12959;DHT22;6544;51.666;6.634;2022-10-16T00:25:58;14.40;24.50
12959;DHT22;6544;51.666;6.634;2022-10-16T00:28:25;14.40;26.80
12959;DHT22;6544;51.666;6.634;2022-10-16T00:30:54;14.40;24.90
12959;DHT22;6544;51.666;6.634;2022-10-16T00:33:21;14.40;23.00
12959;DHT22;6544;51.666;6.634;2022-10-16T00:35:48;14.40;21.80
12959;DHT22;6544;51.666;6.634;2022-10-16T00:38:16;14.40;20.10
12959;DHT22;6544;51.666;6.634;2022-10-16T00:40:43;14.30;27.20
12959;DHT22;6544;51.666;6.634;2022-10-16T00:43:14;14.40;36.60
12959;DHT22;6544;51.666;6.634;2022-10-16T00:45:41;14.40;34.80
12959;DHT22;6544;51.666;6.634;2022-10-16T00:48:12;14.40;31.20
12959;DHT22;6544;51.666;6.634;2022-10-16T00:50:40;14.30;35.60
12959;DHT22;6544;51.666;6.634;2022-10-16T00:53:10;14.30;37.00
12959;DHT22;6544;51.666;6.634;2022-10-16T00:55:38;14.30;43.70
12959;DHT22;6544;51.666;6.634;2022-10-16T00:58:05;14.30;45.20
12959;DHT22;6544;51.666;6.634;2022-10-16T01:00:32;14.20;43.50
12959;DHT22;6544;51.666;6.634;2022-10-16T01:03:01;14.20;57.90
12959;DHT22;6544;51.666;6.634;2022-10-16T01:05:33;14.30;60.50
12959;DHT22;6544;51.666;6.634;2022-10-16T01:08:07;14.30;54.70
12959;DHT22;6544;51.666;6.634;2022-10-16T01:10:38;14.20;49.10
12959;DHT22;6544;51.666;6.634;2022-10-16T01:13:10;14.30;46.00
12959;DHT22;6544;51.666;6.634;2022-10-16T01:15:42;14.30;44.30
12959;DHT22;6544;51.666;6.634;2022-10-16T01:18:16;14.20;48.70
12959;DHT22;6544;51.666;6.634;2022-10-16T01:20:50;14.20;49.80
12959;DHT22;6544;51.666;6.634;2022-10-16T01:23:29;14.20;50.20
12959;DHT22;6544;51.666;6.634;2022-10-16T01:26:16;14.20;48.90
12959;DHT22;6544;51.666;6.634;2022-10-16T01:28:52;14.20;45.00
12959;DHT22;6544;51.666;6.634;2022-10-16T01:31:24;14.20;38.70
12959;DHT22;6544;51.666;6.634;2022-10-16T01:33:57;14.20;54.50
12959;DHT22;6544;51.666;6.634;2022-10-16T01:36:33;14.20;43.50
12959;DHT22;6544;51.666;6.634;2022-10-16T01:39:02;14.20;40.10
12959;DHT22;6544;51.666;6.634;2022-10-16T01:41:33;14.20;39.50
12959;DHT22;6544;51.666;6.634;2022-10-16T01:44:05;14.20;42.80
12959;DHT22;6544;51.666;6.634;2022-10-16T01:46:35;14.10;39.50
12959;DHT22;6544;51.666;6.634;2022-10-16T01:49:03;14.20;44.10
12959;DHT22;6544;51.666;6.634;2022-10-16T01:51:30;14.20;38.40
12959;DHT22;6544;51.666;6.634;2022-10-16T01:54:00;14.20;35.00
12959;DHT22;6544;51.666;6.634;2022-10-16T01:56:28;14.20;26.50
12959;DHT22;6544;51.666;6.634;2022-10-16T01:58:58;14.20;19.50
12959;DHT22;6544;51.666;6.634;2022-10-16T02:01:31;14.20;14.40
12959;DHT22;6544;51.666;6.634;2022-10-16T02:04:03;14.20;16.00
12959;DHT22;6544;51.666;6.634;2022-10-16T02:06:32;14.30;14.90
12959;DHT22;6544;51.666;6.634;2022-10-16T02:09:07;14.30;12.60
12959;DHT22;6544;51.666;6.634;2022-10-16T02:11:35;14.30;1.00
12959;DHT22;6544;51.666;6.634;2022-10-16T02:14:04;14.20;1.00
12959;DHT22;6544;51.666;6.634;2022-10-16T02:16:38;14.30;1.00
12959;DHT22;6544;51.666;6.634;2022-10-16T02:19:06;14.20;1.00
12959;DHT22;6544;51.666;6.634;2022-10-16T02:21:38;14.20;1.00
12959;DHT22;6544;51.666;6.634;2022-10-16T02:24:12;14.30;1.00
12959;DHT22;6544;51.666;6.634;2022-10-16T02:26:43;14.20;1.00
12959;DHT22;6544;51.666;6.634;2022-10-16T02:29:14;14.20;1.00
12959;DHT22;6544;51.666;6.634;2022-10-16T02:31:48;14.20;1.00
12959;DHT22;6544;51.666;6.634;2022-10-16T02:34:18;14.20;1.00
12959;DHT22;6544;51.666;6.634;2022-10-16T02:36:47;14.20;1.00
12959;DHT22;6544;51.666;6.634;2022-10-16T02:39:16;14.10;1.00
12959;DHT22;6544;51.666;6.634;2022-10-16T02:41:43;14.10;1.00
12959;DHT22;6544;51.666;6.634;2022-10-16T02:44:10;14.10;1.00
12959;DHT22;6544;51.666;6.634;2022-10-16T02:46:37;14.10;1.00
12959;DHT22;6544;51.666;6.634;2022-10-16T02:49:05;14.00;1.00
12959;DHT22;6544;51.666;6.634;2022-10-16T02:51:32;14.00;1.00
12959;DHT22;6544;51.666;6.634;2022-10-16T02:53:59;14.00;1.00
12959;DHT22;6544;51.666;6.634;2022-10-16T02:56:26;14.00;1.00
12959;DHT22;6544;51.666;6.634;2022-10-16T02:58:53;14.00;1.00
12959;DHT22;6544;51.666;6.634;2022-10-16T03:01:20;13.90;1.00
12959;DHT22;6544;51.666;6.634;2022-10-16T03:03:46;13.90;1.00
12959;DHT22;6544;51.666;6.634;2022-10-16T03:06:15;13.90;1.00
12959;DHT22;6544;51.666;6.634;2022-10-16T03:08:42;13.90;1.00
12959;DHT22;6544;51.666;6.634;2022-10-16T03:11:09;13.90;1.00
12959;DHT22;6544;51.666;6.634;2022-10-16T03:13:35;13.90;1.00
12959;DHT22;6544;51.666;6.634;2022-10-16T03:16:03;13.90;1.00
12959;DHT22;6544;51.666;6.634;2022-10-16T03:18:29;13.80;1.00
12959;DHT22;6544;51.666;6.634;2022-10-16T03:20:57;13.90;1.00
12959;DHT22;6544;51.666;6.634;2022-10-16T03:23:26;13.90;1.00
12959;DHT22;6544;51.666;6.634;2022-10-16T03:25:52;13.90;1.00
12959;DHT22;6544;51.666;6.634;2022-10-16T03:28:20;13.90;1.00
12959;DHT22;6544;51.666;6.634;2022-10-16T03:30:47;13.90;1.00
12959;DHT22;6544;51.666;6.634;2022-10-16T03:33:13;13.80;1.00
12959;DHT22;6544;51.666;6.634;2022-10-16T03:35:40;13.90;1.00
12959;DHT22;6544;51.666;6.634;2022-10-16T03:38:07;13.80;1.00
12959;DHT22;6544;51.666;6.634;2022-10-16T03:40:35;13.80;1.00
12959;DHT22;6544;51.666;6.634;2022-10-16T03:43:02;13.80;1.00
12959;DHT22;6544;51.666;6.634;2022-10-16T03:45:29;13.80;1.00
12959;DHT22;6544;51.666;6.634;2022-10-16T03:47:56;13.80;1.00
12959;DHT22;6544;51.666;6.634;2022-10-16T03:50:23;13.70;1.00
12959;DHT22;6544;51.666;6.634;2022-10-16T03:52:50;13.70;4.60
12959;DHT22;6544;51.666;6.634;2022-10-16T03:55:16;13.70;10.60
12959;DHT22;6544;51.666;6.634;2022-10-16T03:57:45;13.70;16.20
12959;DHT22;6544;51.666;6.634;2022-10-16T04:00:12;13.70;12.50
12959;DHT22;6544;51.666;6.634;2022-10-16T04:02:42;13.70;15.10
12959;DHT22;6544;51.666;6.634;2022-10-16T04:05:09;13.70;16.60
12959;DHT22;6544;51.666;6.634;2022-10-16T04:07:36;13.70;17.50
12959;DHT22;6544;51.666;6.634;2022-10-16T04:10:04;13.70;17.80
12959;DHT22;6544;51.666;6.634;2022-10-16T04:12:31;13.70;20.30
12959;DHT22;6544;51.666;6.634;2022-10-16T04:14:59;13.70;20.10
12959;DHT22;6544;51.666;6.634;2022-10-16T04:17:26;13.70;27.90
12959;DHT22;6544;51.666;6.634;2022-10-16T04:19:53;13.70;27.30
12959;DHT22;6544;51.666;6.634;2022-10-16T04:22:20;13.70;20.80
12959;DHT22;6544;51.666;6.634;2022-10-16T04:24:46;13.70;24.70
12959;DHT22;6544;51.666;6.634;2022-10-16T04:27:13;13.80;19.00
12959;DHT22;6544;51.666;6.634;2022-10-16T04:29:40;13.70;26.50
12959;DHT22;6544;51.666;6.634;2022-10-16T04:32:09;13.80;21.60
12959;DHT22;6544;51.666;6.634;2022-10-16T04:34:36;13.80;23.70
12959;DHT22;6544;51.666;6.634;2022-10-16T04:37:03;13.80;13.00
12959;DHT22;6544;51.666;6.634;2022-10-16T04:39:31;13.80;25.40
12959;DHT22;6544;51.666;6.634;2022-10-16T04:41:58;13.80;18.90
12959;DHT22;6544;51.666;6.634;2022-10-16T04:44:25;13.80;13.50
12959;DHT22;6544;51.666;6.634;2022-10-16T04:46:52;13.80;9.40
12959;DHT22;6544;51.666;6.634;2022-10-16T04:49:21;13.90;8.90
12959;DHT22;6544;51.666;6.634;2022-10-16T04:51:47;13.90;7.90
12959;DHT22;6544;51.666;6.634;2022-10-16T04:54:14;13.90;1.50
12959;DHT22;6544;51.666;6.634;2022-10-16T04:56:41;13.90;8.20
12959;DHT22;6544;51.666;6.634;2022-10-16T04:59:12;13.90;1.00
12959;DHT22;6544;51.666;6.634;2022-10-16T05:01:40;13.90;1.00
12959;DHT22;6544;51.666;6.634;2022-10-16T05:04:07;13.80;1.00
12959;DHT22;6544;51.666;6.634;2022-10-16T05:06:35;13.80;1.00
12959;DHT22;6544;51.666;6.634;2022-10-16T05:09:02;13.80;3.40
12959;DHT22;6544;51.666;6.634;2022-10-16T05:11:29;13.80;1.00
12959;DHT22;6544;51.666;6.634;2022-10-16T05:13:56;13.80;4.40
12959;DHT22;6544;51.666;6.634;2022-10-16T05:16:23;13.80;4.30
12959;DHT22;6544;51.666;6.634;2022-10-16T05:18:51;13.80;4.80
12959;DHT22;6544;51.666;6.634;2022-10-16T05:21:21;13.80;8.70
12959;DHT22;6544;51.666;6.634;2022-10-16T05:23:49;13.80;1.40
12959;DHT22;6544;51.666;6.634;2022-10-16T05:26:16;13.80;8.10
12959;DHT22;6544;51.666;6.634;2022-10-16T05:28:43;13.90;1.00
12959;DHT22;6544;51.666;6.634;2022-10-16T05:31:11;13.90;1.00
12959;DHT22;6544;51.666;6.634;2022-10-16T05:33:38;13.90;1.00
12959;DHT22;6544;51.666;6.634;2022-10-16T05:36:06;13.80;1.00
12959;DHT22;6544;51.666;6.634;2022-10-16T05:38:33;13.80;1.00
12959;DHT22;6544;51.666;6.634;2022-10-16T05:41:02;13.80;1.00
12959;DHT22;6544;51.666;6.634;2022-10-16T05:43:30;13.80;1.00
12959;DHT22;6544;51.666;6.634;2022-10-16T05:45:59;13.80;1.00
12959;DHT22;6544;51.666;6.634;2022-10-16T05:48:26;13.80;4.90
12959;DHT22;6544;51.666;6.634;2022-10-16T05:50:58;13.80;1.00
12959;DHT22;6544;51.666;6.634;2022-10-16T05:53:26;13.80;1.00
12959;DHT22;6544;51.666;6.634;2022-10-16T05:55:53;13.80;1.00
12959;DHT22;6544;51.666;6.634;2022-10-16T05:58:22;13.70;1.00
12959;DHT22;6544;51.666;6.634;2022-10-16T06:00:53;13.70;5.50
12959;DHT22;6544;51.666;6.634;2022-10-16T06:03:20;13.80;6.30
12959;DHT22;6544;51.666;6.634;2022-10-16T06:05:47;13.70;4.90
12959;DHT22;6544;51.666;6.634;2022-10-16T06:08:14;13.70;4.30
12959;DHT22;6544;51.666;6.634;2022-10-16T06:10:41;13.70;11.70
12959;DHT22;6544;51.666;6.634;2022-10-16T06:13:09;13.70;19.70
12959;DHT22;6544;51.666;6.634;2022-10-16T06:15:37;13.70;20.30
12959;DHT22;6544;51.666;6.634;2022-10-16T06:18:04;13.70;18.30
12959;DHT22;6544;51.666;6.634;2022-10-16T06:20:31;13.70;23.70
12959;DHT22;6544;51.666;6.634;2022-10-16T06:22:58;13.70;20.80
12959;DHT22;6544;51.666;6.634;2022-10-16T06:25:25;13.70;23.40
12959;DHT22;6544;51.666;6.634;2022-10-16T06:27:52;13.70;22.60
12959;DHT22;6544;51.666;6.634;2022-10-16T06:30:19;13.70;22.70
12959;DHT22;6544;51.666;6.634;2022-10-16T06:32:47;13.70;25.50
12959;DHT22;6544;51.666;6.634;2022-10-16T06:35:15;13.70;29.30
12959;DHT22;6544;51.666;6.634;2022-10-16T06:37:42;13.70;28.40
12959;DHT22;6544;51.666;6.634;2022-10-16T06:40:09;13.70;27.90
12959;DHT22;6544;51.666;6.634;2022-10-16T06:42:36;13.70;31.70
12959;DHT22;6544;51.666;6.634;2022-10-16T06:45:04;13.70;32.60
12959;DHT22;6544;51.666;6.634;2022-10-16T06:47:31;13.60;43.30
12959;DHT22;6544;51.666;6.634;2022-10-16T06:49:59;13.60;40.00
12959;DHT22;6544;51.666;6.634;2022-10-16T06:52:27;13.70;40.70
12959;DHT22;6544;51.666;6.634;2022-10-16T06:54:54;13.70;30.80
12959;DHT22;6544;51.666;6.634;2022-10-16T06:57:22;13.70;37.00
12959;DHT22;6544;51.666;6.634;2022-10-16T06:59:48;13.70;33.20
12959;DHT22;6544;51.666;6.634;2022-10-16T07:02:15;13.70;34.40
12959;DHT22;6544;51.666;6.634;2022-10-16T07:04:42;13.60;35.60
12959;DHT22;6544;51.666;6.634;2022-10-16T07:07:10;13.70;36.10
12959;DHT22;6544;51.666;6.634;2022-10-16T07:09:37;13.70;39.10
12959;DHT22;6544;51.666;6.634;2022-10-16T07:12:04;13.70;33.20
12959;DHT22;6544;51.666;6.634;2022-10-16T07:14:34;13.70;43.20
12959;DHT22;6544;51.666;6.634;2022-10-16T07:17:01;13.70;40.70
12959;DHT22;6544;51.666;6.634;2022-10-16T07:19:28;13.70;47.20
12959;DHT22;6544;51.666;6.634;2022-10-16T07:21:55;13.70;40.50
12959;DHT22;6544;51.666;6.634;2022-10-16T07:24:23;13.70;40.40
12959;DHT22;6544;51.666;6.634;2022-10-16T07:26:50;13.80;43.70
12959;DHT22;6544;51.666;6.634;2022-10-16T07:29:19;13.80;42.60
12959;DHT22;6544;51.666;6.634;2022-10-16T07:31:47;13.80;48.70
12959;DHT22;6544;51.666;6.634;2022-10-16T07:34:20;13.80;51.10
12959;DHT22;6544;51.666;6.634;2022-10-16T07:36:48;13.80;52.10
12959;DHT22;6544;51.666;6.634;2022-10-16T07:39:16;13.90;49.90
12959;DHT22;6544;51.666;6.634;2022-10-16T07:41:44;13.90;50.40
12959;DHT22;6544;51.666;6.634;2022-10-16T07:44:11;13.90;51.20
12959;DHT22;6544;51.666;6.634;2022-10-16T07:46:38;14.00;43.70
12959;DHT22;6544;51.666;6.634;2022-10-16T07:49:05;14.00;50.60
12959;DHT22;6544;51.666;6.634;2022-10-16T07:51:32;14.10;41.60
12959;DHT22;6544;51.666;6.634;2022-10-16T07:53:58;14.10;37.60
12959;DHT22;6544;51.666;6.634;2022-10-16T07:56:25;14.10;36.40
12959;DHT22;6544;51.666;6.634;2022-10-16T07:58:57;14.20;39.00
12959;DHT22;6544;51.666;6.634;2022-10-16T08:01:23;14.30;36.10
12959;DHT22;6544;51.666;6.634;2022-10-16T08:03:51;14.30;27.20
12959;DHT22;6544;51.666;6.634;2022-10-16T08:06:19;14.30;24.30
12959;DHT22;6544;51.666;6.634;2022-10-16T08:08:46;14.40;21.70
12959;DHT22;6544;51.666;6.634;2022-10-16T08:11:14;14.50;11.50
12959;DHT22;6544;51.666;6.634;2022-10-16T08:13:41;14.60;5.20
12959;DHT22;6544;51.666;6.634;2022-10-16T08:16:09;14.70;1.00
12959;DHT22;6544;51.666;6.634;2022-10-16T08:18:37;14.80;1.00
12959;DHT22;6544;51.666;6.634;2022-10-16T08:21:07;14.90;1.00
12959;DHT22;6544;51.666;6.634;2022-10-16T08:23:37;14.90;1.00
12959;DHT22;6544;51.666;6.634;2022-10-16T08:26:05;15.00;1.00
12959;DHT22;6544;51.666;6.634;2022-10-16T08:28:33;15.10;1.00
12959;DHT22;6544;51.666;6.634;2022-10-16T08:31:09;15.10;1.00
12959;DHT22;6544;51.666;6.634;2022-10-16T08:33:36;15.20;1.00
12959;DHT22;6544;51.666;6.634;2022-10-16T08:36:04;15.30;1.00
12959;DHT22;6544;51.666;6.634;2022-10-16T08:38:31;15.40;1.00
12959;DHT22;6544;51.666;6.634;2022-10-16T08:41:19;15.40;1.00
12959;DHT22;6544;51.666;6.634;2022-10-16T08:44:00;15.50;1.00
12959;DHT22;6544;51.666;6.634;2022-10-16T08:46:41;15.50;1.00
12959;DHT22;6544;51.666;6.634;2022-10-16T08:49:13;15.60;1.00
12959;DHT22;6544;51.666;6.634;2022-10-16T08:51:40;15.70;1.00
12959;DHT22;6544;51.666;6.634;2022-10-16T08:54:21;15.70;99.90
12959;DHT22;6544;51.666;6.634;2022-10-16T08:56:49;15.80;99.90
12959;DHT22;6544;51.666;6.634;2022-10-16T08:59:16;15.80;99.90
12959;DHT22;6544;51.666;6.634;2022-10-16T09:01:46;15.90;35.30
12959;DHT22;6544;51.666;6.634;2022-10-16T09:04:41;16.00;21.40
12959;DHT22;6544;51.666;6.634;2022-10-16T09:07:15;16.00;1.00
12959;DHT22;6544;51.666;6.634;2022-10-16T09:10:06;16.00;1.00
12959;DHT22;6544;51.666;6.634;2022-10-16T09:12:39;16.10;1.00
12959;DHT22;6544;51.666;6.634;2022-10-16T09:15:17;16.20;1.00
12959;DHT22;6544;51.666;6.634;2022-10-16T09:17:54;16.10;1.00
12959;DHT22;6544;51.666;6.634;2022-10-16T09:20:38;16.20;1.00
12959;DHT22;6544;51.666;6.634;2022-10-16T09:23:25;16.10;1.00
12959;DHT22;6544;51.666;6.634;2022-10-16T09:25:53;16.30;1.00
12959;DHT22;6544;51.666;6.634;2022-10-16T09:28:21;16.40;99.90
12959;DHT22;6544;51.666;6.634;2022-10-16T09:30:49;16.50;1.00
12959;DHT22;6544;51.666;6.634;2022-10-16T09:33:19;16.50;82.60
12959;DHT22;6544;51.666;6.634;2022-10-16T09:35:49;16.60;1.00
12959;DHT22;6544;51.666;6.634;2022-10-16T09:38:25;16.60;1.00
12959;DHT22;6544;51.666;6.634;2022-10-16T09:40:54;16.60;99.90
12959;DHT22;6544;51.666;6.634;2022-10-16T09:43:23;16.50;99.90
12959;DHT22;6544;51.666;6.634;2022-10-16T09:45:55;16.50;99.90
12959;DHT22;6544;51.666;6.634;2022-10-16T09:48:25;16.60;99.90
12959;DHT22;6544;51.666;6.634;2022-10-16T09:50:58;16.80;1.00
12959;DHT22;6544;51.666;6.634;2022-10-16T09:53:37;16.90;1.00
12959;DHT22;6544;51.666;6.634;2022-10-16T09:56:05;17.10;1.00
12959;DHT22;6544;51.666;6.634;2022-10-16T09:58:33;17.10;1.00
12959;DHT22;6544;51.666;6.634;2022-10-16T10:01:00;17.10;1.00
12959;DHT22;6544;51.666;6.634;2022-10-16T10:03:39;17.20;99.90
12959;DHT22;6544;51.666;6.634;2022-10-16T10:06:21;17.30;99.90
12959;DHT22;6544;51.666;6.634;2022-10-16T10:09:17;17.30;1.00
12959;DHT22;6544;51.666;6.634;2022-10-16T10:11:48;17.30;99.90
12959;DHT22;6544;51.666;6.634;2022-10-16T10:14:30;17.30;99.90
12959;DHT22;6544;51.666;6.634;2022-10-16T10:17:14;17.40;1.00
12959;DHT22;6544;51.666;6.634;2022-10-16T10:19:49;17.60;1.00
12959;DHT22;6544;51.666;6.634;2022-10-16T10:22:29;17.70;1.00
12959;DHT22;6544;51.666;6.634;2022-10-16T10:24:59;17.80;1.00
12959;DHT22;6544;51.666;6.634;2022-10-16T10:27:34;17.90;99.90
12959;DHT22;6544;51.666;6.634;2022-10-16T10:30:10;18.00;99.90
12959;DHT22;6544;51.666;6.634;2022-10-16T10:32:49;18.20;99.90
12959;DHT22;6544;51.666;6.634;2022-10-16T10:35:24;18.30;99.90
12959;DHT22;6544;51.666;6.634;2022-10-16T10:38:04;18.00;1.00
12959;DHT22;6544;51.666;6.634;2022-10-16T10:40:43;18.00;7.30
12959;DHT22;6544;51.666;6.634;2022-10-16T10:43:22;18.10;1.00
12959;DHT22;6544;51.666;6.634;2022-10-16T10:45:55;18.40;1.00
12959;DHT22;6544;51.666;6.634;2022-10-16T10:48:49;18.00;1.00
12959;DHT22;6544;51.666;6.634;2022-10-16T10:51:26;18.30;99.90
12959;DHT22;6544;51.666;6.634;2022-10-16T10:54:09;18.50;1.00
12959;DHT22;6544;51.666;6.634;2022-10-16T10:56:45;18.70;1.00
12959;DHT22;6544;51.666;6.634;2022-10-16T10:59:32;18.80;1.00
12959;DHT22;6544;51.666;6.634;2022-10-16T11:02:01;18.90;1.00
12959;DHT22;6544;51.666;6.634;2022-10-16T11:07:34;19.00;1.00
12959;DHT22;6544;51.666;6.634;2022-10-16T11:10:11;19.00;99.90
12959;DHT22;6544;51.666;6.634;2022-10-16T11:12:44;19.00;1.00
12959;DHT22;6544;51.666;6.634;2022-10-16T11:15:14;19.00;1.00
12959;DHT22;6544;51.666;6.634;2022-10-16T11:17:48;19.10;1.00
12959;DHT22;6544;51.666;6.634;2022-10-16T11:20:19;19.20;1.00
12959;DHT22;6544;51.666;6.634;2022-10-16T11:22:51;19.30;99.90
12959;DHT22;6544;51.666;6.634;2022-10-16T11:25:22;19.30;99.90
12959;DHT22;6544;51.666;6.634;2022-10-16T11:27:54;19.10;1.00
12959;DHT22;6544;51.666;6.634;2022-10-16T11:30:24;19.40;1.00
12959;DHT22;6544;51.666;6.634;2022-10-16T11:33:04;19.30;1.00
12959;DHT22;6544;51.666;6.634;2022-10-16T11:35:41;19.60;99.90
12959;DHT22;6544;51.666;6.634;2022-10-16T11:38:15;19.80;1.00
12959;DHT22;6544;51.666;6.634;2022-10-16T11:40:48;19.70;1.00
12959;DHT22;6544;51.666;6.634;2022-10-16T11:43:21;19.90;99.90
12959;DHT22;6544;51.666;6.634;2022-10-16T11:45:59;20.00;1.00
12959;DHT22;6544;51.666;6.634;2022-10-16T11:54:07;20.10;1.00
12959;DHT22;6544;51.666;6.634;2022-10-16T11:58:33;19.80;55.80
12959;DHT22;6544;51.666;6.634;2022-10-16T12:01:15;19.90;1.00
12959;DHT22;6544;51.666;6.634;2022-10-16T12:03:58;19.20;1.00
12959;DHT22;6544;51.666;6.634;2022-10-16T12:06:40;19.80;21.80
12959;DHT22;6544;51.666;6.634;2022-10-16T12:11:47;19.50;1.00
12959;DHT22;6544;51.666;6.634;2022-10-16T12:12:54;19.30;1.00
12959;DHT22;6544;51.666;6.634;2022-10-16T12:15:25;19.40;78.50
12959;DHT22;6544;51.666;6.634;2022-10-16T12:17:53;19.30;1.00
12959;DHT22;6544;51.666;6.634;2022-10-16T12:20:31;19.60;99.90
12959;DHT22;6544;51.666;6.634;2022-10-16T12:23:02;20.00;1.00
12959;DHT22;6544;51.666;6.634;2022-10-16T12:25:31;20.40;14.40
12959;DHT22;6544;51.666;6.634;2022-10-16T12:28:03;20.60;1.00
12959;DHT22;6544;51.666;6.634;2022-10-16T12:30:34;19.60;99.90
12959;DHT22;6544;51.666;6.634;2022-10-16T12:33:03;19.70;99.90
12959;DHT22;6544;51.666;6.634;2022-10-16T12:35:32;19.80;1.00
12959;DHT22;6544;51.666;6.634;2022-10-16T12:38:08;20.00;1.00
12959;DHT22;6544;51.666;6.634;2022-10-16T12:40:39;20.10;99.90
12959;DHT22;6544;51.666;6.634;2022-10-16T12:43:37;20.00;1.00
12959;DHT22;6544;51.666;6.634;2022-10-16T12:46:22;20.00;99.90
12959;DHT22;6544;51.666;6.634;2022-10-16T12:48:49;19.90;1.00
12959;DHT22;6544;51.666;6.634;2022-10-16T12:51:25;20.20;1.00
12959;DHT22;6544;51.666;6.634;2022-10-16T12:53:59;20.50;99.90
12959;DHT22;6544;51.666;6.634;2022-10-16T12:56:35;20.50;92.90
12959;DHT22;6544;51.666;6.634;2022-10-16T12:59:13;19.80;99.90
12959;DHT22;6544;51.666;6.634;2022-10-16T13:02:03;19.00;1.00
12959;DHT22;6544;51.666;6.634;2022-10-16T13:04:47;19.50;99.90
12959;DHT22;6544;51.666;6.634;2022-10-16T13:07:30;19.60;99.90
12959;DHT22;6544;51.666;6.634;2022-10-16T13:10:08;19.20;1.00
12959;DHT22;6544;51.666;6.634;2022-10-16T13:12:59;19.30;1.00
12959;DHT22;6544;51.666;6.634;2022-10-16T13:15:39;19.40;1.00
12959;DHT22;6544;51.666;6.634;2022-10-16T13:18:15;19.60;1.00
12959;DHT22;6544;51.666;6.634;2022-10-16T13:20:56;20.00;99.90
12959;DHT22;6544;51.666;6.634;2022-10-16T13:23:33;19.90;99.90
12959;DHT22;6544;51.666;6.634;2022-10-16T13:26:09;18.90;1.00
12959;DHT22;6544;51.666;6.634;2022-10-16T13:28:41;18.80;1.00
12959;DHT22;6544;51.666;6.634;2022-10-16T13:31:15;18.80;1.00
12959;DHT22;6544;51.666;6.634;2022-10-16T13:33:46;19.10;99.90
12959;DHT22;6544;51.666;6.634;2022-10-16T13:36:21;19.40;1.00
12959;DHT22;6544;51.666;6.634;2022-10-16T13:38:48;19.20;1.00
12959;DHT22;6544;51.666;6.634;2022-10-16T13:41:16;19.30;1.00
12959;DHT22;6544;51.666;6.634;2022-10-16T13:43:52;19.20;1.00
12959;DHT22;6544;51.666;6.634;2022-10-16T13:46:32;19.00;1.00
12959;DHT22;6544;51.666;6.634;2022-10-16T13:49:03;19.10;1.00
12959;DHT22;6544;51.666;6.634;2022-10-16T13:51:32;19.00;1.00
12959;DHT22;6544;51.666;6.634;2022-10-16T13:53:59;19.20;1.00
12959;DHT22;6544;51.666;6.634;2022-10-16T13:56:28;19.40;1.00
12959;DHT22;6544;51.666;6.634;2022-10-16T13:58:59;19.40;1.00
12959;DHT22;6544;51.666;6.634;2022-10-16T14:01:28;19.10;1.00
12959;DHT22;6544;51.666;6.634;2022-10-16T14:04:03;18.80;32.40
12959;DHT22;6544;51.666;6.634;2022-10-16T14:06:32;19.00;99.90
12959;DHT22;6544;51.666;6.634;2022-10-16T14:09:04;19.10;1.00
12959;DHT22;6544;51.666;6.634;2022-10-16T14:11:32;19.10;14.40
12959;DHT22;6544;51.666;6.634;2022-10-16T14:14:03;19.20;96.00
12959;DHT22;6544;51.666;6.634;2022-10-16T14:16:31;19.40;99.90
12959;DHT22;6544;51.666;6.634;2022-10-16T14:19:02;19.50;19.80
12959;DHT22;6544;51.666;6.634;2022-10-16T14:21:32;19.50;1.00
12959;DHT22;6544;51.666;6.634;2022-10-16T14:23:59;19.50;1.00
12959;DHT22;6544;51.666;6.634;2022-10-16T14:26:27;19.50;99.90
12959;DHT22;6544;51.666;6.634;2022-10-16T14:29:12;19.40;1.00
12959;DHT22;6544;51.666;6.634;2022-10-16T14:31:39;19.40;1.00
12959;DHT22;6544;51.666;6.634;2022-10-16T14:34:25;19.40;1.00
12959;DHT22;6544;51.666;6.634;2022-10-16T14:36:53;19.40;1.00
12959;DHT22;6544;51.666;6.634;2022-10-16T14:39:22;19.30;1.00
12959;DHT22;6544;51.666;6.634;2022-10-16T14:41:50;19.30;1.00
12959;DHT22;6544;51.666;6.634;2022-10-16T14:44:18;19.30;1.00
12959;DHT22;6544;51.666;6.634;2022-10-16T14:46:47;19.20;1.00
12959;DHT22;6544;51.666;6.634;2022-10-16T14:49:17;19.20;99.90
12959;DHT22;6544;51.666;6.634;2022-10-16T14:51:46;19.30;99.90
12959;DHT22;6544;51.666;6.634;2022-10-16T14:54:15;19.30;99.90
12959;DHT22;6544;51.666;6.634;2022-10-16T14:56:46;19.30;99.90
12959;DHT22;6544;51.666;6.634;2022-10-16T14:59:16;19.30;99.90
12959;DHT22;6544;51.666;6.634;2022-10-16T15:01:44;19.30;99.90
12959;DHT22;6544;51.666;6.634;2022-10-16T15:04:12;19.30;99.90
12959;DHT22;6544;51.666;6.634;2022-10-16T15:06:39;19.30;1.00
12959;DHT22;6544;51.666;6.634;2022-10-16T15:09:08;19.40;1.30
12959;DHT22;6544;51.666;6.634;2022-10-16T15:11:35;19.40;99.90
12959;DHT22;6544;51.666;6.634;2022-10-16T15:14:02;19.40;1.00
12959;DHT22;6544;51.666;6.634;2022-10-16T15:16:30;19.40;1.00
12959;DHT22;6544;51.666;6.634;2022-10-16T15:18:57;19.40;1.00
12959;DHT22;6544;51.666;6.634;2022-10-16T15:21:26;19.30;1.00
12959;DHT22;6544;51.666;6.634;2022-10-16T15:23:54;19.30;99.90
12959;DHT22;6544;51.666;6.634;2022-10-16T15:26:26;19.40;66.80
12959;DHT22;6544;51.666;6.634;2022-10-16T15:28:53;19.40;1.00
12959;DHT22;6544;51.666;6.634;2022-10-16T15:31:21;19.30;1.00
12959;DHT22;6544;51.666;6.634;2022-10-16T15:33:50;19.30;1.00
12959;DHT22;6544;51.666;6.634;2022-10-16T15:36:25;19.30;1.00
12959;DHT22;6544;51.666;6.634;2022-10-16T15:38:52;19.30;1.00
12959;DHT22;6544;51.666;6.634;2022-10-16T15:41:19;19.30;15.90
12959;DHT22;6544;51.666;6.634;2022-10-16T15:43:49;19.30;1.00
12959;DHT22;6544;51.666;6.634;2022-10-16T15:46:19;19.30;1.00
12959;DHT22;6544;51.666;6.634;2022-10-16T15:48:46;19.30;1.00
12959;DHT22;6544;51.666;6.634;2022-10-16T15:51:13;19.30;1.00
12959;DHT22;6544;51.666;6.634;2022-10-16T15:53:40;19.30;14.60
12959;DHT22;6544;51.666;6.634;2022-10-16T15:56:08;19.20;1.00
12959;DHT22;6544;51.666;6.634;2022-10-16T15:58:36;19.20;19.70
12959;DHT22;6544;51.666;6.634;2022-10-16T16:01:05;19.20;99.90
12959;DHT22;6544;51.666;6.634;2022-10-16T16:03:38;19.20;99.90
12959;DHT22;6544;51.666;6.634;2022-10-16T16:06:07;19.20;99.90
12959;DHT22;6544;51.666;6.634;2022-10-16T16:08:34;19.20;99.90
12959;DHT22;6544;51.666;6.634;2022-10-16T16:11:04;19.10;99.90
12959;DHT22;6544;51.666;6.634;2022-10-16T16:13:31;19.10;99.90
12959;DHT22;6544;51.666;6.634;2022-10-16T16:15:58;19.10;99.90
12959;DHT22;6544;51.666;6.634;2022-10-16T16:18:26;19.00;99.90
12959;DHT22;6544;51.666;6.634;2022-10-16T16:20:54;18.90;1.00
12959;DHT22;6544;51.666;6.634;2022-10-16T16:23:21;18.80;1.00
12959;DHT22;6544;51.666;6.634;2022-10-16T16:26:03;18.80;1.00
12959;DHT22;6544;51.666;6.634;2022-10-16T16:28:30;18.80;99.90